MAPA DE AEROPUERTO

INFORMACIÓN METAR y TAF

METAR FOR ENVA
ADDS - METARS form results

(1159 UTC 05 August 2021)
Data provider http://aviationweather.gov/metar/data/
 
METAR text: ENVA 051150Z 25012KT CAVOK 18/11 Q1011 NOSIG RMK WIND 670FT 30004KT
Conditions at: ENVA (TRONDHEIM/VAERNE, NO) observed 1150 UTC 05 August 2021
Temperature: 18.0°C (64°F)
Dewpoint: 11.0°C (52°F) [RH = 64%]
Pressure (altimeter): 29.85 inches Hg (1011.0 mb)
Winds: from the WSW (250 degrees) at 14 MPH (12 knots; 6.2 m/s)
Visibility: 6 or more miles (10+ km)
Ceiling: ceiling and visibility are OK
Clouds: unknown
Weather: no significant weather observed at this time

METAR text: ENVA 051120Z 25011KT CAVOK 18/12 Q1011 NOSIG RMK WIND 670FT 32004KT
Conditions at: ENVA (TRONDHEIM/VAERNE, NO) observed 1120 UTC 05 August 2021
Temperature: 18.0°C (64°F)
Dewpoint: 12.0°C (54°F) [RH = 68%]
Pressure (altimeter): 29.85 inches Hg (1011.0 mb)
Winds: from the WSW (250 degrees) at 13 MPH (11 knots; 5.7 m/s)
Visibility: 6 or more miles (10+ km)
Ceiling: ceiling and visibility are OK
Clouds: unknown
Weather: no significant weather observed at this time

Forecast for: ENVA (TRONDHEIM/VAERNE, NO)
Text: TAF ENVA 0512/0612 26010KT CAVOK
Forecast period: 1200 UTC 05 August 2021 to 1200 UTC 06 August 2021
Forecast type: FROM: standard forecast or significant change
Winds: from the W (260 degrees) at 12 MPH (10 knots; 5.1 m/s)
Visibility: 6 or more miles (10+ km)
Ceiling: unknown
Clouds: missing
Weather: NSW  (no significant weather)
Text: BECMG 0512/0514 VRB05KT
Forecast period: 1200 UTC 05 August 2021 to 0600 UTC 06 August 2021
Forecast type: BECOMING: Conditions expected to become as follows by 1400 UTC 05 August 2021
Winds: variable direction winds at 6 MPH (5 knots; 2.6 m/s)
Visibility: 6 or more miles (10+ km)
Ceiling: unknown
Clouds: missing
Weather: NSW  (no significant weather)
Text: PROB40
Forecast period: 1200 to 2100 UTC 05 August 2021
Forecast type: TEMPORARY: The following changes expected for less than half the time period
Winds: from the SE (130 degrees) at 17 MPH (15 knots; 7.7 m/s)
gusting to 29 MPH (25 knots; 12.9 m/s)
Visibility: missing
Ceiling: 2000 feet AGL
Clouds: broken clouds at 2000 feet AGL
Weather: TSRA  (rain associated with thunderstorm(s))
Text: TEMPO 0512/0521 13015G25KT TSRA BKN020CB
Forecast period: 0600 to 1200 UTC 06 August 2021
Forecast type: BECOMING: Conditions expected to become as follows by 0900 UTC 06 August 2021
Winds: from the SE (140 degrees) at 14 MPH (12 knots; 6.2 m/s)
Visibility: 6 or more miles (10+ km)
Ceiling: unknown
Clouds: missing
Weather: NSW  (no significant weather)